Time;durP1;ratioP1;P1;durP2;ratioP2;P2;SDS_P1;SDS_P2;PMS_P1;PMS_P2;Temp;Humidity;BMP_temperature;BMP_pressure;BME280_temperature;BME280_humidity;BME280_pressure;Samples;Min_cycle;Max_cycle;Signal;HPM_P1;HPM_P2
2022/02/23 00:00:49;;;;;;;;;;;18.90;59.00;;;;;;5016421;28;1271;-68
2022/02/23 00:03:15;;;;;;;;;;;18.80;58.90;;;;;;5016135;28;1286;-68
2022/02/23 00:05:40;;;;;;;;;;;18.80;58.90;;;;;;5016259;28;1217;-67
2022/02/23 00:08:06;;;;;;;;;;;18.90;59.00;;;;;;5015664;28;1138;-68
2022/02/23 00:10:31;;;;;;;;;;;18.80;59.00;;;;;;5016040;28;1278;-68
2022/02/23 00:12:56;;;;;;;;;;;18.80;59.00;;;;;;5016013;28;1961;-68
2022/02/23 00:15:22;;;;;;;;;;;18.80;59.00;;;;;;4998568;28;1295;-68
2022/02/23 00:17:47;;;;;;;;;;;18.80;59.10;;;;;;5016073;28;1319;-69
2022/02/23 00:20:13;;;;;;;;;;;18.80;59.10;;;;;;5015543;28;1339;-68
2022/02/23 00:22:39;;;;;;;;;;;18.80;59.10;;;;;;5015521;28;1076;-68
2022/02/23 00:25:04;;;;;;;;;;;18.80;59.10;;;;;;5015490;28;1362;-68
2022/02/23 00:27:30;;;;;;;;;;;18.80;59.20;;;;;;5015596;28;1213;-68
2022/02/23 00:29:55;;;;;;;;;;;18.80;59.20;;;;;;5015415;28;1296;-68
2022/02/23 00:32:21;;;;;;;;;;;18.80;59.20;;;;;;5015828;28;1379;-68
2022/02/23 00:34:46;;;;;;;;;;;18.80;59.20;;;;;;5015631;28;1963;-68
2022/02/23 00:37:12;;;;;;;;;;;18.80;59.20;;;;;;5015447;28;1289;-68
2022/02/23 00:39:37;;;;;;;;;;;18.70;59.20;;;;;;4997812;28;1281;-68
2022/02/23 00:42:03;;;;;;;;;;;18.80;59.30;;;;;;4997861;28;1249;-68
2022/02/23 00:44:28;;;;;;;;;;;18.80;59.30;;;;;;5008065;28;1422;-68
2022/02/23 00:46:54;;;;;;;;;;;18.70;59.30;;;;;;5011458;28;1285;-68
2022/02/23 00:49:20;;;;;;;;;;;18.70;59.30;;;;;;5014046;28;1112;-67
2022/02/23 00:51:45;;;;;;;;;;;18.70;59.30;;;;;;5015130;28;1139;-68
2022/02/23 00:54:10;;;;;;;;;;;18.70;59.30;;;;;;5015226;28;1953;-68
2022/02/23 00:56:36;;;;;;;;;;;18.70;59.30;;;;;;5015362;28;1400;-69
2022/02/23 00:59:01;;;;;;;;;;;18.70;59.30;;;;;;5014866;28;1323;-68
2022/02/23 01:01:27;;;;;;;;;;;18.70;59.30;;;;;;5015134;28;1400;-69
2022/02/23 01:03:52;;;;;;;;;;;18.70;59.40;;;;;;5013884;28;1355;-68
2022/02/23 01:06:18;;;;;;;;;;;18.70;59.40;;;;;;5014930;28;1273;-68
2022/02/23 01:08:43;;;;;;;;;;;18.70;59.40;;;;;;4997046;28;1274;-68
2022/02/23 01:11:08;;;;;;;;;;;18.70;59.40;;;;;;5015041;28;1266;-67
2022/02/23 01:13:34;;;;;;;;;;;18.70;59.40;;;;;;5014849;28;1955;-68
2022/02/23 01:15:59;;;;;;;;;;;18.70;59.40;;;;;;5014877;28;1265;-68
2022/02/23 01:18:25;;;;;;;;;;;18.60;60.00;;;;;;4997289;28;1293;-68
2022/02/23 01:20:50;;;;;;;;;;;18.70;59.50;;;;;;5014987;28;1299;-68
2022/02/23 01:23:16;;;;;;;;;;;18.70;59.50;;;;;;5014366;28;1424;-68
2022/02/23 01:25:41;;;;;;;;;;;18.60;59.50;;;;;;4997165;28;1336;-68
2022/02/23 01:28:07;;;;;;;;;;;18.60;59.50;;;;;;5014742;28;1288;-67
2022/02/23 01:30:32;;;;;;;;;;;18.60;59.50;;;;;;4997153;28;1251;-68
2022/02/23 01:32:58;;;;;;;;;;;18.60;59.50;;;;;;4984960;28;1906;-68
2022/02/23 01:35:23;;;;;;;;;;;18.60;59.50;;;;;;5003358;28;1351;-68
2022/02/23 01:37:49;;;;;;;;;;;18.60;59.50;;;;;;4996635;28;1277;-68
2022/02/23 01:40:14;;;;;;;;;;;18.60;59.50;;;;;;4996762;28;1362;-67
2022/02/23 01:42:40;;;;;;;;;;;18.60;59.60;;;;;;4997050;28;1316;-68
2022/02/23 01:45:06;;;;;;;;;;;18.60;59.60;;;;;;4984757;28;1343;-68
2022/02/23 01:47:31;;;;;;;;;;;18.60;59.60;;;;;;5014312;28;1280;-68
2022/02/23 01:49:56;;;;;;;;;;;18.60;59.60;;;;;;5014119;28;1247;-68
2022/02/23 01:52:25;;;;;;;;;;;18.60;59.60;;;;;;5014024;28;1277;-68
2022/02/23 01:54:53;;;;;;;;;;;18.60;59.70;;;;;;5014110;28;1911;-68
2022/02/23 01:57:19;;;;;;;;;;;18.60;59.70;;;;;;5013185;28;1270;-68
2022/02/23 01:59:44;;;;;;;;;;;18.60;59.70;;;;;;5013809;28;1256;-69
2022/02/23 02:02:09;;;;;;;;;;;18.60;60.30;;;;;;5014129;28;1222;-68
2022/02/23 02:04:35;;;;;;;;;;;18.60;59.70;;;;;;5030764;22;3679;-68
2022/02/23 02:07:00;;;;;;;;;;;18.60;59.70;;;;;;5028834;28;1777;-68
2022/02/23 02:09:26;;;;;;;;;;;18.60;59.70;;;;;;5026507;28;1405;-68
2022/02/23 02:11:51;;;;;;;;;;;18.60;59.70;;;;;;5033999;28;1571;-68
2022/02/23 02:14:17;;;;;;;;;;;18.50;59.70;;;;;;5033700;28;1958;-68
2022/02/23 02:16:42;;;;;;;;;;;18.60;60.50;;;;;;5033540;28;1667;-68
2022/02/23 02:19:08;;;;;;;;;;;18.50;59.70;;;;;;5032225;28;1557;-68
2022/02/23 02:21:49;;;;;;;;;;;18.50;59.70;;;;;;5033475;28;1580;-68
2022/02/23 02:24:15;;;;;;;;;;;18.50;59.70;;;;;;5032564;28;1606;-68
2022/02/23 02:26:40;;;;;;;;;;;18.50;59.70;;;;;;5032734;28;1674;-68
2022/02/23 02:29:05;;;;;;;;;;;18.50;59.70;;;;;;5033487;28;1577;-68
2022/02/23 02:31:31;;;;;;;;;;;18.50;59.70;;;;;;5033761;28;1599;-68
2022/02/23 02:33:56;;;;;;;;;;;18.50;59.70;;;;;;5033306;28;1906;-68
2022/02/23 02:36:22;;;;;;;;;;;18.50;59.80;;;;;;5033488;28;1373;-68
2022/02/23 02:38:47;;;;;;;;;;;18.50;59.80;;;;;;5033238;28;1432;-68
2022/02/23 02:41:12;;;;;;;;;;;18.50;59.80;;;;;;5033380;28;1453;-68
2022/02/23 02:43:38;;;;;;;;;;;18.50;59.80;;;;;;5033875;28;1467;-68
2022/02/23 02:46:03;;;;;;;;;;;18.50;59.80;;;;;;5043905;28;1378;-68
2022/02/23 02:48:29;;;;;;;;;;;18.50;59.80;;;;;;5032862;28;1411;-68
2022/02/23 02:50:54;;;;;;;;;;;18.50;59.90;;;;;;5033377;28;1357;-68
2022/02/23 02:53:20;;;;;;;;;;;18.50;59.80;;;;;;5033151;28;1898;-68
2022/02/23 02:55:45;;;;;;;;;;;18.50;59.80;;;;;;5033232;28;1384;-68
2022/02/23 02:58:11;;;;;;;;;;;18.50;59.80;;;;;;5033045;28;1652;-68
2022/02/23 03:00:36;;;;;;;;;;;18.50;59.80;;;;;;5032898;28;1471;-68
2022/02/23 03:03:02;;;;;;;;;;;18.50;59.90;;;;;;5033047;28;1422;-68
2022/02/23 03:05:29;;;;;;;;;;;18.50;59.90;;;;;;5031731;28;1301;-68
2022/02/23 03:07:54;;;;;;;;;;;18.50;59.90;;;;;;5032926;28;1672;-68
2022/02/23 03:10:20;;;;;;;;;;;18.40;59.90;;;;;;5032748;28;1459;-68
2022/02/23 03:12:45;;;;;;;;;;;18.50;60.00;;;;;;5032935;28;1902;-68
2022/02/23 03:15:10;;;;;;;;;;;18.50;59.90;;;;;;5031904;28;1667;-69
2022/02/23 03:17:36;;;;;;;;;;;18.50;60.00;;;;;;5031673;28;1637;-69
2022/02/23 03:20:02;;;;;;;;;;;18.40;59.90;;;;;;5032617;28;1731;-69
2022/02/23 03:22:27;;;;;;;;;;;18.50;60.00;;;;;;5032922;28;1656;-68
2022/02/23 03:24:53;;;;;;;;;;;18.40;59.90;;;;;;5032972;28;1641;-68
2022/02/23 03:27:18;;;;;;;;;;;18.40;59.90;;;;;;5027188;28;1459;-68
2022/02/23 03:29:44;;;;;;;;;;;18.40;59.90;;;;;;5025905;28;1254;-68
2022/02/23 03:32:09;;;;;;;;;;;18.40;60.00;;;;;;5027220;28;1258;-68
2022/02/23 03:34:34;;;;;;;;;;;18.40;60.00;;;;;;5026943;28;1957;-67
2022/02/23 03:37:00;;;;;;;;;;;18.40;60.00;;;;;;5030009;28;1322;-69
2022/02/23 03:39:25;;;;;;;;;;;18.40;60.00;;;;;;5031249;28;1323;-67
2022/02/23 03:41:51;;;;;;;;;;;18.40;60.00;;;;;;5029845;28;1236;-68
2022/02/23 03:44:16;;;;;;;;;;;18.40;60.00;;;;;;5029783;28;1391;-67
2022/02/23 03:46:41;;;;;;;;;;;18.40;60.00;;;;;;5028332;28;1260;-67
2022/02/23 03:49:07;;;;;;;;;;;18.40;60.00;;;;;;5030691;28;1208;-69
2022/02/23 03:51:32;;;;;;;;;;;18.40;60.00;;;;;;5029513;28;1223;-68
2022/02/23 03:53:58;;;;;;;;;;;18.40;60.00;;;;;;5032712;28;1902;-68
2022/02/23 03:56:38;;;;;;;;;;;18.40;60.00;;;;;;5030106;28;1689;-68
2022/02/23 03:59:06;;;;;;;;;;;18.40;60.00;;;;;;5027273;28;1239;-68
2022/02/23 04:01:33;;;;;;;;;;;18.40;60.10;;;;;;5030925;28;1230;-69
2022/02/23 04:03:59;;;;;;;;;;;18.40;60.10;;;;;;5026454;28;1235;-67
2022/02/23 04:06:24;;;;;;;;;;;18.40;60.10;;;;;;5027531;28;1232;-69
2022/02/23 04:08:50;;;;;;;;;;;18.40;60.10;;;;;;5027796;28;1352;-70
2022/02/23 04:11:15;;;;;;;;;;;18.40;60.10;;;;;;5028297;28;1260;-68
2022/02/23 04:13:40;;;;;;;;;;;18.40;60.10;;;;;;5029239;28;1906;-68
2022/02/23 04:16:06;;;;;;;;;;;18.40;60.10;;;;;;5031636;28;1236;-69
2022/02/23 04:18:31;;;;;;;;;;;18.40;60.10;;;;;;5031185;28;1164;-68
2022/02/23 04:20:57;;;;;;;;;;;18.40;60.20;;;;;;5028775;28;1250;-68
2022/02/23 04:23:22;;;;;;;;;;;18.40;60.20;;;;;;5029810;28;1188;-68
2022/02/23 04:25:48;;;;;;;;;;;18.40;60.20;;;;;;5030675;28;1298;-69
2022/02/23 04:28:13;;;;;;;;;;;18.40;60.20;;;;;;5030491;28;1349;-69
2022/02/23 04:30:38;;;;;;;;;;;18.40;60.20;;;;;;5028737;28;1079;-69
2022/02/23 04:33:04;;;;;;;;;;;18.40;60.20;;;;;;5027067;28;1902;-69
2022/02/23 04:35:29;;;;;;;;;;;18.40;60.20;;;;;;5027865;28;1279;-70
2022/02/23 04:37:55;;;;;;;;;;;18.40;60.20;;;;;;5028902;28;1351;-69
2022/02/23 04:40:20;;;;;;;;;;;18.30;60.20;;;;;;5028951;28;1164;-69
2022/02/23 04:42:47;;;;;;;;;;;18.30;60.20;;;;;;5031354;28;1354;-70
2022/02/23 04:45:12;;;;;;;;;;;18.40;60.20;;;;;;5026343;28;1327;-68
2022/02/23 04:47:37;;;;;;;;;;;18.30;60.20;;;;;;5035679;28;1306;-68
2022/02/23 04:50:03;;;;;;;;;;;18.30;60.20;;;;;;5033662;28;1076;-69
2022/02/23 04:52:28;;;;;;;;;;;18.30;60.20;;;;;;5035488;28;1272;-68
2022/02/23 04:54:54;;;;;;;;;;;18.30;60.20;;;;;;5035017;28;1951;-69
2022/02/23 04:57:19;;;;;;;;;;;18.30;60.20;;;;;;5035340;28;1356;-69
2022/02/23 04:59:45;;;;;;;;;;;18.30;60.20;;;;;;5033494;28;1390;-69
2022/02/23 05:02:11;;;;;;;;;;;18.30;60.20;;;;;;5033932;28;1290;-68
2022/02/23 05:04:37;;;;;;;;;;;18.30;60.30;;;;;;5034903;28;1347;-68
2022/02/23 05:07:02;;;;;;;;;;;18.30;60.30;;;;;;5035313;28;1277;-69
2022/02/23 05:09:28;;;;;;;;;;;18.30;60.20;;;;;;5034462;28;1350;-69
2022/02/23 05:11:53;;;;;;;;;;;18.30;60.30;;;;;;5035219;28;1357;-69
2022/02/23 05:14:20;;;;;;;;;;;18.30;60.30;;;;;;5033152;28;1898;-68
2022/02/23 05:16:46;;;;;;;;;;;18.30;60.30;;;;;;5034696;28;1389;-69
2022/02/23 05:19:11;;;;;;;;;;;18.30;60.30;;;;;;5034584;28;1317;-67
2022/02/23 05:21:36;;;;;;;;;;;18.30;60.30;;;;;;5033619;28;1321;-68
2022/02/23 05:24:02;;;;;;;;;;;18.30;60.30;;;;;;5031768;28;1764;-67
2022/02/23 05:26:27;;;;;;;;;;;18.30;60.30;;;;;;5030360;28;1379;-67
2022/02/23 05:28:53;;;;;;;;;;;18.30;60.30;;;;;;5033829;28;1126;-67
2022/02/23 05:31:18;;;;;;;;;;;18.30;60.30;;;;;;5034566;28;1247;-67
2022/02/23 05:33:44;;;;;;;;;;;18.30;60.40;;;;;;5033184;28;1902;-70
2022/02/23 05:36:09;;;;;;;;;;;18.30;60.30;;;;;;5034450;28;1262;-67
2022/02/23 05:38:34;;;;;;;;;;;18.30;60.40;;;;;;5034187;28;1287;-69
2022/02/23 05:41:03;;;;;;;;;;;18.30;60.40;;;;;;5030290;28;2152;-70
2022/02/23 05:43:28;;;;;;;;;;;18.30;60.40;;;;;;5035005;28;1344;-69
2022/02/23 05:45:54;;;;;;;;;;;18.30;60.40;;;;;;5019493;28;1744;-69
2022/02/23 05:48:20;;;;;;;;;;;18.30;60.40;;;;;;5034214;28;1406;-68
2022/02/23 05:50:45;;;;;;;;;;;18.30;60.40;;;;;;5015965;28;1374;-69
2022/02/23 05:53:10;;;;;;;;;;;18.30;60.40;;;;;;5033350;28;1910;-69
2022/02/23 05:55:36;;;;;;;;;;;18.30;60.40;;;;;;5034304;28;1450;-69
2022/02/23 05:58:01;;;;;;;;;;;18.20;60.40;;;;;;5034756;28;1099;-68
2022/02/23 06:00:27;;;;;;;;;;;18.20;60.40;;;;;;5035478;28;1373;-69
2022/02/23 06:02:52;;;;;;;;;;;18.20;60.40;;;;;;5034588;28;1306;-68
2022/02/23 06:05:17;;;;;;;;;;;18.20;60.40;;;;;;5034316;28;1304;-68
2022/02/23 06:07:43;;;;;;;;;;;18.20;60.40;;;;;;5033262;28;1284;-69
2022/02/23 06:10:08;;;;;;;;;;;18.30;60.40;;;;;;5032552;28;1327;-68
2022/02/23 06:12:34;;;;;;;;;;;18.30;60.40;;;;;;5034093;28;1302;-68
2022/02/23 06:14:59;;;;;;;;;;;18.30;60.30;;;;;;5032384;28;1971;-69
2022/02/23 06:17:25;;;;;;;;;;;18.30;60.30;;;;;;5032877;28;1299;-69
2022/02/23 06:19:50;;;;;;;;;;;18.40;60.20;;;;;;5033491;28;1305;-68
2022/02/23 06:22:16;;;;;;;;;;;18.40;60.00;;;;;;5032489;28;1323;-69
2022/02/23 06:24:41;;;;;;;;;;;18.40;59.90;;;;;;5034227;28;1301;-69
2022/02/23 06:27:07;;;;;;;;;;;18.50;59.90;;;;;;5033559;28;1274;-68
2022/02/23 06:29:32;;;;;;;;;;;18.50;59.70;;;;;;5033052;28;1278;-70
2022/02/23 06:31:57;;;;;;;;;;;18.50;59.70;;;;;;5033850;28;1321;-69
2022/02/23 06:34:23;;;;;;;;;;;18.50;59.50;;;;;;5033318;28;1902;-70
2022/02/23 06:36:48;;;;;;;;;;;18.60;59.50;;;;;;5033678;28;1288;-69
2022/02/23 06:39:14;;;;;;;;;;;18.60;59.40;;;;;;5033447;28;1131;-70
2022/02/23 06:41:39;;;;;;;;;;;18.60;59.30;;;;;;5032405;28;1447;-69
2022/02/23 06:44:05;;;;;;;;;;;18.70;59.30;;;;;;5037532;28;1303;-68
2022/02/23 06:46:31;;;;;;;;;;;18.70;59.20;;;;;;5041918;28;1357;-68
2022/02/23 06:48:56;;;;;;;;;;;18.70;59.10;;;;;;5033948;28;1322;-67
2022/02/23 06:51:22;;;;;;;;;;;18.70;59.10;;;;;;5033306;28;1279;-67
2022/02/23 06:53:47;;;;;;;;;;;18.70;59.00;;;;;;5033948;28;1903;-68
2022/02/23 06:56:13;;;;;;;;;;;18.80;59.00;;;;;;5034542;28;1378;-68
2022/02/23 06:58:56;;;;;;;;;;;18.80;59.00;;;;;;5015781;28;1368;-68
2022/02/23 07:01:22;;;;;;;;;;;18.80;58.90;;;;;;5033374;28;1344;-69
2022/02/23 07:03:48;;;;;;;;;;;18.80;58.90;;;;;;5032037;28;1295;-70
2022/02/23 07:06:13;;;;;;;;;;;18.80;58.80;;;;;;5019434;28;1848;-69
2022/02/23 07:08:43;;;;;;;;;;;18.80;58.80;;;;;;5040840;28;1119;-70
2022/02/23 07:11:09;;;;;;;;;;;18.80;58.80;;;;;;5044030;28;1875;-69
2022/02/23 07:13:34;;;;;;;;;;;18.80;58.80;;;;;;5026925;28;1906;-68
2022/02/23 07:15:59;;;;;;;;;;;18.80;58.70;;;;;;5029597;28;1745;-68
2022/02/23 07:18:25;;;;;;;;;;;18.80;58.70;;;;;;5025001;28;2077;-69
2022/02/23 07:20:50;;;;;;;;;;;18.80;58.70;;;;;;5031767;28;1141;-67
2022/02/23 07:23:16;;;;;;;;;;;18.90;58.70;;;;;;5033578;28;1182;-67
2022/02/23 07:25:41;;;;;;;;;;;18.90;58.70;;;;;;5031334;28;1292;-66
2022/02/23 07:28:07;;;;;;;;;;;18.90;58.70;;;;;;5033273;28;1106;-67
2022/02/23 07:30:32;;;;;;;;;;;18.90;58.70;;;;;;5032620;28;1143;-67
2022/02/23 07:32:58;;;;;;;;;;;18.90;58.60;;;;;;5031578;28;1957;-67
2022/02/23 07:35:23;;;;;;;;;;;18.90;58.60;;;;;;5022277;28;1266;-66
2022/02/23 07:37:52;;;;;;;;;;;18.90;58.60;;;;;;5034390;28;1313;-68
2022/02/23 07:40:23;;;;;;;;;;;18.90;58.60;;;;;;5032305;28;1317;-67
2022/02/23 07:42:49;;;;;;;;;;;18.90;58.60;;;;;;5031388;28;1466;-65
2022/02/23 07:45:14;;;;;;;;;;;18.90;58.60;;;;;;5041526;28;1322;-66
2022/02/23 07:47:40;;;;;;;;;;;18.90;58.60;;;;;;5031126;28;1285;-66
2022/02/23 07:50:09;;;;;;;;;;;18.90;58.50;;;;;;5032343;28;1134;-66
2022/02/23 07:52:34;;;;;;;;;;;18.90;58.50;;;;;;5031025;28;1336;-65
2022/02/23 07:55:00;;;;;;;;;;;19.00;58.40;;;;;;5030881;28;1961;-66
2022/02/23 07:57:25;;;;;;;;;;;19.10;58.30;;;;;;5031370;28;1105;-71
2022/02/23 07:59:51;;;;;;;;;;;19.20;58.20;;;;;;5030614;28;1021;-68
2022/02/23 08:02:17;;;;;;;;;;;19.30;58.00;;;;;;5025909;28;1817;-69
2022/02/23 08:07:10;;;;;;;;;;;19.60;57.70;;;;;;5027965;28;2160;-68
2022/02/23 08:09:36;;;;;;;;;;;19.70;57.40;;;;;;5026735;28;1407;-67
2022/02/23 08:12:03;;;;;;;;;;;19.80;57.10;;;;;;5032207;28;1440;-68
2022/02/23 08:14:28;;;;;;;;;;;19.90;56.90;;;;;;5033582;28;1910;-68
2022/02/23 08:19:38;;;;;;;;;;;20.10;56.30;;;;;;5034870;28;1313;-68
2022/02/23 08:22:08;;;;;;;;;;;20.20;56.10;;;;;;5033892;28;1640;-69
2022/02/23 08:24:35;;;;;;;;;;;20.30;55.90;;;;;;5034357;28;1414;-69
2022/02/23 08:27:01;;;;;;;;;;;20.40;55.80;;;;;;5035705;28;1403;-69
2022/02/23 08:29:26;;;;;;;;;;;20.50;55.60;;;;;;5034636;28;1415;-69
2022/02/23 08:31:52;;;;;;;;;;;20.50;55.50;;;;;;5034398;28;1784;-69
2022/02/23 08:34:18;;;;;;;;;;;20.50;55.20;;;;;;5034957;28;1977;-70
2022/02/23 08:36:44;;;;;;;;;;;20.60;55.20;;;;;;5033886;28;1385;-70
2022/02/23 08:39:09;;;;;;;;;;;20.60;55.10;;;;;;5030661;28;2035;-71
2022/02/23 08:41:35;;;;;;;;;;;20.70;55.00;;;;;;5031899;28;1410;-69
2022/02/23 08:44:02;;;;;;;;;;;20.70;55.00;;;;;;5038644;28;1490;-67
2022/02/23 09:38:12;;;;;;;;;;;20.50;55.40;;;;;;5034513;28;910;-71
2022/02/23 09:40:41;;;;;;;;;;;20.50;55.50;;;;;;5041513;28;1273;-72
2022/02/23 09:43:07;;;;;;;;;;;20.50;55.60;;;;;;5039095;28;2493;-73
2022/02/23 09:45:32;;;;;;;;;;;20.50;55.60;;;;;;5034895;28;1432;-72
2022/02/23 09:47:58;;;;;;;;;;;20.50;55.70;;;;;;5043558;28;1115;-73
2022/02/23 09:50:25;;;;;;;;;;;20.40;55.70;;;;;;5052434;28;1395;-72
2022/02/23 09:52:51;;;;;;;;;;;20.40;55.80;;;;;;5053677;28;1285;-71
2022/02/23 09:55:17;;;;;;;;;;;20.40;55.80;;;;;;5052597;28;1915;-72
2022/02/23 09:57:43;;;;;;;;;;;20.40;55.90;;;;;;5052858;28;1264;-72
2022/02/23 10:00:08;;;;;;;;;;;20.40;55.90;;;;;;5034381;28;1774;-72
2022/02/23 10:02:37;;;;;;;;;;;20.30;55.90;;;;;;5034337;28;1116;-71
2022/02/23 10:05:03;;;;;;;;;;;20.30;56.00;;;;;;5052014;28;1221;-71
2022/02/23 10:07:32;;;;;;;;;;;20.30;56.00;;;;;;5052478;28;1284;-71
2022/02/23 10:10:00;;;;;;;;;;;20.30;56.10;;;;;;5044915;28;2210;-72
2022/02/23 10:12:26;;;;;;;;;;;20.30;56.10;;;;;;5029795;28;1569;-71
2022/02/23 10:15:07;;;;;;;;;;;20.30;56.10;;;;;;5039340;28;1964;-71
2022/02/23 10:17:43;;;;;;;;;;;20.30;56.20;;;;;;5048377;28;1185;-71
2022/02/23 10:20:25;;;;;;;;;;;20.30;56.20;;;;;;5053186;28;1329;-71
2022/02/23 10:22:51;;;;;;;;;;;20.20;56.20;;;;;;5049421;28;1869;-71
2022/02/23 10:25:27;;;;;;;;;;;20.20;56.80;;;;;;5027603;28;1973;-71
2022/02/23 10:28:05;;;;;;;;;;;20.20;56.30;;;;;;5041051;28;1397;-72
2022/02/23 10:30:30;;;;;;;;;;;20.20;56.40;;;;;;5032785;28;1309;-72
2022/02/23 10:32:57;;;;;;;;;;;20.20;56.40;;;;;;5053406;28;1062;-72
2022/02/23 10:35:27;;;;;;;;;;;20.20;56.40;;;;;;5039070;28;1902;-72
2022/02/23 10:37:54;;;;;;;;;;;20.20;56.50;;;;;;5051647;28;1343;-71
2022/02/23 10:40:19;;;;;;;;;;;20.20;56.50;;;;;;5045774;28;1310;-72
2022/02/23 10:42:45;;;;;;;;;;;20.10;56.50;;;;;;5051759;28;1294;-72
2022/02/23 10:45:14;;;;;;;;;;;20.10;56.50;;;;;;5041536;28;1310;-72
2022/02/23 10:47:42;;;;;;;;;;;20.10;56.50;;;;;;5035149;28;1288;-72
2022/02/23 10:50:07;;;;;;;;;;;20.10;56.60;;;;;;5052432;28;1317;-72
2022/02/23 10:52:34;;;;;;;;;;;20.10;56.60;;;;;;5051677;28;1231;-72
2022/02/23 10:55:20;;;;;;;;;;;20.10;56.60;;;;;;5043564;28;1906;-71
2022/02/23 10:57:50;;;;;;;;;;;20.10;56.70;;;;;;5052884;28;1318;-72
2022/02/23 11:00:19;;;;;;;;;;;20.00;56.70;;;;;;5050411;28;1331;-73
2022/02/23 11:02:45;;;;;;;;;;;20.00;56.70;;;;;;5045755;28;1252;-72
2022/02/23 11:05:11;;;;;;;;;;;20.10;56.70;;;;;;5032869;28;1582;-71
2022/02/23 11:07:37;;;;;;;;;;;20.00;56.70;;;;;;5023685;28;2211;-71
2022/02/23 11:10:02;;;;;;;;;;;20.00;56.70;;;;;;5043075;28;1327;-73
2022/02/23 11:12:28;;;;;;;;;;;20.10;56.80;;;;;;5033134;28;1960;-73
2022/02/23 11:14:54;;;;;;;;;;;20.10;56.80;;;;;;5028395;28;2210;-72
2022/02/23 11:17:19;;;;;;;;;;;20.10;56.70;;;;;;5034213;28;1634;-72
2022/02/23 11:19:45;;;;;;;;;;;20.10;56.60;;;;;;5040300;28;1407;-71
2022/02/23 11:22:11;;;;;;;;;;;20.20;56.60;;;;;;5037050;28;1266;-72
2022/02/23 11:24:39;;;;;;;;;;;20.20;56.50;;;;;;5045867;28;1299;-71
2022/02/23 11:27:06;;;;;;;;;;;20.20;56.40;;;;;;5051437;28;1273;-72
2022/02/23 11:29:34;;;;;;;;;;;20.20;56.40;;;;;;5028345;28;1371;-71
2022/02/23 11:31:59;;;;;;;;;;;20.30;56.40;;;;;;5044061;28;1068;-71
2022/02/23 11:34:25;;;;;;;;;;;20.20;56.30;;;;;;5045579;28;1902;-72
2022/02/23 11:36:54;;;;;;;;;;;20.20;56.30;;;;;;5043799;28;1270;-72
2022/02/23 11:39:27;;;;;;;;;;;20.30;56.30;;;;;;5051903;28;1334;-72
2022/02/23 11:41:54;;;;;;;;;;;20.30;56.30;;;;;;5051037;28;1353;-71
2022/02/23 11:44:20;;;;;;;;;;;20.30;56.30;;;;;;5032906;28;2266;-71
2022/02/23 11:46:52;;;;;;;;;;;20.30;56.30;;;;;;5032485;28;1303;-72
2022/02/23 11:49:20;;;;;;;;;;;20.20;56.20;;;;;;5045014;28;1381;-73
2022/02/23 11:52:04;;;;;;;;;;;20.30;56.30;;;;;;5055768;28;1318;-72
2022/02/23 11:54:48;;;;;;;;;;;20.20;56.30;;;;;;5055763;28;1964;-72
2022/02/23 11:57:32;;;;;;;;;;;20.20;56.20;;;;;;5055880;28;1284;-73
2022/02/23 12:02:41;;;;;;;;;;;20.20;56.30;;;;;;5035813;28;1231;-72
2022/02/23 12:05:08;;;;;;;;;;;20.20;56.40;;;;;;5035177;28;1305;-71
2022/02/23 12:07:46;;;;;;;;;;;20.20;56.40;;;;;;5054437;28;1295;-72
2022/02/23 12:10:12;;;;;;;;;;;20.20;56.40;;;;;;5053458;28;1366;-72
2022/02/23 12:12:41;;;;;;;;;;;20.20;56.40;;;;;;5048437;28;1259;-71
2022/02/23 12:15:08;;;;;;;;;;;20.20;56.50;;;;;;5053689;28;1906;-71
2022/02/23 12:17:42;;;;;;;;;;;20.20;56.50;;;;;;5054617;28;1105;-71
2022/02/23 12:20:08;;;;;;;;;;;20.10;56.50;;;;;;5029064;28;1321;-71
2022/02/23 12:22:36;;;;;;;;;;;20.10;56.60;;;;;;5053863;28;1179;-70
2022/02/23 12:25:04;;;;;;;;;;;20.10;56.60;;;;;;5053695;28;1318;-72
2022/02/23 12:27:29;;;;;;;;;;;20.10;56.60;;;;;;5049838;28;1360;-71
2022/02/23 12:29:55;;;;;;;;;;;20.10;56.70;;;;;;5045729;28;1225;-72
2022/02/23 12:32:20;;;;;;;;;;;20.10;56.70;;;;;;5049536;28;1458;-71
2022/02/23 12:34:46;;;;;;;;;;;20.10;56.70;;;;;;5045507;28;1966;-71
2022/02/23 12:37:12;;;;;;;;;;;20.10;56.70;;;;;;5049244;28;1334;-70
2022/02/23 12:39:37;;;;;;;;;;;20.00;56.70;;;;;;5036653;28;1357;-71
2022/02/23 12:42:04;;;;;;;;;;;20.10;56.80;;;;;;5053706;28;1378;-71
2022/02/23 12:44:34;;;;;;;;;;;20.00;56.70;;;;;;5046077;28;1383;-71
2022/02/23 12:47:07;;;;;;;;;;;20.00;56.80;;;;;;5042598;28;1929;-70
2022/02/23 12:49:32;;;;;;;;;;;20.00;56.80;;;;;;5044053;28;1366;-70
2022/02/23 12:51:57;;;;;;;;;;;20.00;56.80;;;;;;5053273;28;1282;-72
2022/02/23 12:54:24;;;;;;;;;;;20.00;56.80;;;;;;5053479;28;1905;-72
2022/02/23 12:56:53;;;;;;;;;;;20.00;56.80;;;;;;5036794;28;1302;-72
2022/02/23 12:59:25;;;;;;;;;;;20.00;56.90;;;;;;5052886;28;1247;-72
2022/02/23 13:01:52;;;;;;;;;;;20.00;56.90;;;;;;5043345;28;1278;-72
2022/02/23 13:04:18;;;;;;;;;;;20.00;56.90;;;;;;5054976;28;1254;-72
2022/02/23 13:06:47;;;;;;;;;;;20.00;56.90;;;;;;5053252;28;1122;-72
2022/02/23 13:09:13;;;;;;;;;;;20.00;57.00;;;;;;5052970;28;1300;-72
2022/02/23 13:11:40;;;;;;;;;;;20.00;57.00;;;;;;5053157;28;1056;-72
2022/02/23 13:14:26;;;;;;;;;;;19.90;57.00;;;;;;5054292;28;1961;-72
2022/02/23 13:16:52;;;;;;;;;;;19.90;57.00;;;;;;5053782;28;1277;-71
2022/02/23 13:19:36;;;;;;;;;;;19.90;57.00;;;;;;5051283;28;1279;-72
2022/02/23 13:22:05;;;;;;;;;;;19.90;57.00;;;;;;5033219;28;1045;-70
2022/02/23 13:24:34;;;;;;;;;;;19.90;57.00;;;;;;5033941;28;1385;-71
2022/02/23 13:27:04;;;;;;;;;;;19.90;57.10;;;;;;5052894;28;1067;-72
2022/02/23 13:29:29;;;;;;;;;;;19.90;57.10;;;;;;5047850;28;1280;-73
2022/02/23 13:31:55;;;;;;;;;;;19.90;57.10;;;;;;5044904;28;1308;-72
2022/02/23 13:34:27;;;;;;;;;;;19.90;57.20;;;;;;5047788;28;1894;-72
2022/02/23 13:36:53;;;;;;;;;;;19.90;57.20;;;;;;5047002;28;1391;-71
2022/02/23 13:39:22;;;;;;;;;;;19.90;57.20;;;;;;5051993;28;1351;-71
2022/02/23 13:41:55;;;;;;;;;;;19.80;57.20;;;;;;5052436;28;1310;-72
2022/02/23 13:44:22;;;;;;;;;;;19.80;57.20;;;;;;5046034;28;1327;-71
2022/02/23 13:46:50;;;;;;;;;;;19.80;57.30;;;;;;5047528;28;1417;-72
2022/02/23 13:49:15;;;;;;;;;;;19.80;57.30;;;;;;5052042;28;1292;-72
2022/02/23 13:51:41;;;;;;;;;;;19.80;57.30;;;;;;5052509;28;1390;-72
2022/02/23 13:54:07;;;;;;;;;;;19.80;57.30;;;;;;5053897;28;1939;-72
2022/02/23 13:56:32;;;;;;;;;;;19.80;57.30;;;;;;5052576;28;1342;-72
2022/02/23 13:59:01;;;;;;;;;;;19.80;57.30;;;;;;5052786;28;1217;-72
2022/02/23 14:01:28;;;;;;;;;;;19.80;57.40;;;;;;5041740;28;1723;-71
2022/02/23 14:03:54;;;;;;;;;;;19.80;57.40;;;;;;5025834;28;1918;-71
2022/02/23 14:06:21;;;;;;;;;;;19.80;57.40;;;;;;5035286;28;1086;-71
2022/02/23 14:08:47;;;;;;;;;;;19.80;57.40;;;;;;5031914;28;2060;-72
2022/02/23 14:11:16;;;;;;;;;;;19.80;57.50;;;;;;5033567;28;1878;-72
2022/02/23 14:13:44;;;;;;;;;;;19.70;57.40;;;;;;5038588;28;1953;-72
2022/02/23 14:16:10;;;;;;;;;;;19.70;57.40;;;;;;5048682;28;1363;-73
2022/02/23 14:18:37;;;;;;;;;;;19.70;57.40;;;;;;5051772;28;1310;-73
2022/02/23 14:21:08;;;;;;;;;;;19.70;57.40;;;;;;5038152;28;1969;-72
2022/02/23 14:23:33;;;;;;;;;;;19.70;57.50;;;;;;5038169;28;1921;-72
2022/02/23 14:26:06;;;;;;;;;;;19.70;57.50;;;;;;5029920;28;2062;-72
2022/02/23 14:28:33;;;;;;;;;;;19.70;57.50;;;;;;5015024;28;1221;-73
2022/02/23 14:30:59;;;;;;;;;;;19.70;57.60;;;;;;5038629;28;1398;-72
2022/02/23 14:33:26;;;;;;;;;;;19.70;57.50;;;;;;5053617;28;1947;-72
2022/02/23 14:35:51;;;;;;;;;;;19.70;57.60;;;;;;5040084;28;1395;-73
2022/02/23 14:38:17;;;;;;;;;;;19.70;57.60;;;;;;5052301;28;1314;-72
2022/02/23 14:40:42;;;;;;;;;;;19.70;57.60;;;;;;5052339;28;1302;-72
2022/02/23 14:43:07;;;;;;;;;;;19.60;57.60;;;;;;5051244;28;950;-73
2022/02/23 14:45:33;;;;;;;;;;;19.70;57.60;;;;;;5040639;28;1328;-72
2022/02/23 14:47:58;;;;;;;;;;;19.70;57.60;;;;;;5051504;28;1341;-73
2022/02/23 14:50:25;;;;;;;;;;;19.70;57.60;;;;;;5045185;28;1751;-73
2022/02/23 14:52:52;;;;;;;;;;;19.60;57.60;;;;;;5025779;28;1941;-73
2022/02/23 14:55:18;;;;;;;;;;;19.60;57.60;;;;;;5031011;28;1964;-73
2022/02/23 14:57:44;;;;;;;;;;;19.60;57.60;;;;;;5037609;28;1139;-72
2022/02/23 15:00:11;;;;;;;;;;;19.60;57.70;;;;;;5036567;28;1310;-73
2022/02/23 15:02:37;;;;;;;;;;;19.60;57.70;;;;;;5038521;28;1064;-72
2022/02/23 15:05:03;;;;;;;;;;;19.60;57.70;;;;;;5033146;28;1639;-71
2022/02/23 15:07:28;;;;;;;;;;;19.60;57.70;;;;;;5025954;28;1650;-73
2022/02/23 15:09:54;;;;;;;;;;;19.60;57.70;;;;;;5039674;28;1382;-70
2022/02/23 15:12:19;;;;;;;;;;;19.60;57.70;;;;;;5045614;28;1184;-70
2022/02/23 15:14:45;;;;;;;;;;;19.60;57.70;;;;;;5052267;28;1955;-70
2022/02/23 15:17:11;;;;;;;;;;;19.60;57.70;;;;;;5051258;28;1385;-70
2022/02/23 15:19:36;;;;;;;;;;;19.60;57.80;;;;;;5050644;28;1322;-70
2022/02/23 15:22:02;;;;;;;;;;;19.60;57.80;;;;;;5051706;28;1304;-71
2022/02/23 15:24:27;;;;;;;;;;;19.60;57.80;;;;;;5051272;28;1376;-71
2022/02/23 15:26:53;;;;;;;;;;;19.60;57.80;;;;;;5064119;23;3764;-70